Ashdown, Arkansas
Current Conditions -  °F | °C
As of 5:14 PM on Sunday 21 Dec 2014 (Local Time) from KTXK Reporting Station
Scattered Clouds Scattered Clouds  
Wind Chill: 51°   Ceiling: Unl
Heat Index: 51°   Visibility: 10mi
Dew Point: 44°   Wind: 5mph
Humidity: 77%   Direction: 160°SSE
Pressure: 29.92"   Gusts: NA
Location:  33.67°N, 94.13°W
Report Text: KTXK 212314Z 16004KT 10SM SCT028 11/07 A2992 RMK AO2 T01060067
Loading
Personal Weather Stations






























Interactive Weather Map New forecast layout! Learn more

10-Day Weather Forecast

Advertisements
Track Severe Weather on mobile